Time;durP1;ratioP1;P1;durP2;ratioP2;P2;SDS_P1;SDS_P2;PMS_P1;PMS_P2;Temp;Humidity;BMP_temperature;BMP_pressure;BME280_temperature;BME280_humidity;BME280_pressure;Samples;Min_cycle;Max_cycle;Signal;HPM_P1;HPM_P2
2022/02/17 00:00:18;;;;;;;52.83;9.57;;;3.30;99.90;;;;;;4983072;28;20050;-66
2022/02/17 00:02:46;;;;;;;59.88;9.18;;;3.30;99.90;;;;;;4985328;28;20118;-66
2022/02/17 00:05:13;;;;;;;60.55;8.52;;;3.30;99.90;;;;;;4979191;28;20074;-66
2022/02/17 00:07:40;;;;;;;58.65;9.32;;;3.30;99.90;;;;;;4985286;28;20046;-67
2022/02/17 00:10:09;;;;;;;27.10;5.53;;;3.30;99.90;;;;;;5014106;28;20109;-66
2022/02/17 00:12:36;;;;;;;36.50;5.80;;;3.30;99.90;;;;;;4978657;28;20066;-65
2022/02/17 00:15:04;;;;;;;41.45;5.85;;;3.30;99.90;;;;;;4981364;28;20089;-69
2022/02/17 00:17:31;;;;;;;14.25;5.63;;;3.30;99.90;;;;;;4998541;28;20211;-66
2022/02/17 00:19:58;;;;;;;24.52;4.65;;;3.40;99.90;;;;;;5004044;28;20123;-65
2022/02/17 00:22:25;;;;;;;24.30;5.65;;;3.40;99.90;;;;;;4999862;28;20092;-65
2022/02/17 00:24:52;;;;;;;12.50;5.03;;;3.40;99.90;;;;;;5002122;28;20086;-66
2022/02/17 00:27:19;;;;;;;20.38;5.95;;;3.40;99.90;;;;;;4997839;28;20085;-67
2022/02/17 00:29:46;;;;;;;83.20;10.40;;;3.30;99.90;;;;;;4987510;28;20054;-70
2022/02/17 00:32:15;;;;;;;71.30;8.68;;;3.30;99.90;;;;;;4994049;28;20050;-67
2022/02/17 00:34:42;;;;;;;25.70;8.38;;;3.30;99.90;;;;;;4982029;28;20046;-66
2022/02/17 00:37:10;;;;;;;53.58;9.85;;;3.30;99.90;;;;;;4982980;28;20058;-68
2022/02/17 00:39:37;;;;;;;53.67;7.65;;;3.30;99.90;;;;;;4980601;28;20625;-67
2022/02/17 00:42:04;;;;;;;23.05;5.47;;;3.30;99.90;;;;;;4986408;28;20047;-66
2022/02/17 00:44:32;;;;;;;51.30;7.03;;;3.30;99.90;;;;;;4981984;28;20089;-69
2022/02/17 00:46:59;;;;;;;39.58;8.20;;;3.20;99.90;;;;;;4983388;28;20653;-68
2022/02/17 00:49:29;;;;;;;27.23;5.68;;;3.20;99.90;;;;;;4979258;28;20042;-65
2022/02/17 00:51:56;;;;;;;30.33;5.68;;;3.20;99.90;;;;;;4982370;28;20748;-68
2022/02/17 00:54:24;;;;;;;36.70;6.85;;;3.20;99.90;;;;;;4988223;28;20058;-65
2022/02/17 00:56:51;;;;;;;33.60;7.68;;;3.20;99.90;;;;;;4986674;28;20153;-67
2022/02/17 00:59:22;;;;;;;;;;;3.20;99.90;;;;;;4984697;28;20054;-69
2022/02/17 01:01:49;;;;;;;38.53;7.35;;;3.10;99.90;;;;;;4983706;28;19941;-68
2022/02/17 01:04:16;;;;;;;67.70;8.13;;;3.10;99.90;;;;;;4990051;28;20216;-65
2022/02/17 01:06:44;;;;;;;44.97;6.55;;;3.10;99.90;;;;;;4985310;28;20498;-68
2022/02/17 01:09:13;;;;;;;37.10;5.93;;;3.10;99.90;;;;;;4989172;28;20054;-67
2022/02/17 01:11:41;;;;;;;38.78;7.10;;;3.10;99.90;;;;;;4987217;28;20078;-66
2022/02/17 01:14:09;;;;;;;28.15;6.75;;;3.10;99.90;;;;;;4998539;28;20046;-66
2022/02/17 01:16:37;;;;;;;44.65;6.68;;;3.00;99.90;;;;;;4993884;28;20184;-66
2022/02/17 01:19:13;;;;;;;24.10;4.35;;;3.10;99.90;;;;;;4984274;28;20058;-67
2022/02/17 01:21:45;;;;;;;13.77;4.03;;;3.10;99.90;;;;;;5016718;28;20043;-65
2022/02/17 01:24:12;;;;;;;10.65;6.45;;;3.10;99.90;;;;;;4982292;28;20046;-66
2022/02/17 01:26:40;;;;;;;12.95;4.68;;;3.10;99.90;;;;;;5017691;28;20437;-69
2022/02/17 01:29:13;;;;;;;20.23;6.30;;;3.10;99.90;;;;;;4995742;28;20519;-68
2022/02/17 01:31:40;;;;;;;12.30;4.05;;;3.10;99.90;;;;;;4930780;28;20298;-66
2022/02/17 01:34:19;;;;;;;6.24;4.19;;;3.10;99.90;;;;;;1276794;28;10022379;-69
2022/02/17 01:37:04;;;;;;;8.48;4.03;;;3.10;99.90;;;;;;5001148;28;20250;-67
2022/02/17 01:39:34;;;;;;;9.85;4.03;;;3.10;99.90;;;;;;5036653;28;20172;-65
2022/02/17 01:42:10;;;;;;;10.88;4.72;;;3.10;99.90;;;;;;5036913;28;20077;-68
2022/02/17 01:44:44;;;;;;;7.72;5.28;;;3.10;99.90;;;;;;5035214;28;20062;-67
2022/02/17 01:47:13;;;;;;;10.10;5.35;;;3.10;99.90;;;;;;5000842;28;20460;-65
2022/02/17 01:49:41;;;;;;;10.02;5.57;;;3.10;99.90;;;;;;5036599;28;20046;-65
2022/02/17 01:52:11;;;;;;;11.00;5.78;;;3.10;99.90;;;;;;5002403;28;20054;-67
2022/02/17 01:54:41;;;;;;;9.60;5.65;;;3.10;99.90;;;;;;5004393;28;20096;-67
2022/02/17 01:57:29;;;;;;;9.15;5.18;;;3.10;99.90;;;;;;5033320;28;20046;-68
2022/02/17 02:00:05;;;;;;;7.53;4.50;;;3.10;99.90;;;;;;5000972;28;20128;-71
2022/02/17 02:02:42;;;;;;;11.43;5.10;;;3.20;99.90;;;;;;5008746;28;20076;-68
2022/02/17 02:05:10;;;;;;;10.63;5.53;;;3.20;99.90;;;;;;5000050;28;20408;-66
2022/02/17 02:07:37;;;;;;;10.25;5.93;;;3.20;99.90;;;;;;5004136;28;20145;-70
2022/02/17 02:10:26;;;;;;;8.50;4.92;;;3.20;99.90;;;;;;4031458;28;10002059;-65
2022/02/17 02:12:53;;;;;;;9.07;4.10;;;3.20;99.90;;;;;;2403229;28;10001978;-67
2022/02/17 02:15:54;;;;;;;7.03;4.28;;;3.10;99.90;;;;;;4980236;28;20050;-67
2022/02/17 02:18:23;;;;;;;10.00;5.28;;;3.10;99.90;;;;;;4979942;28;20065;-66
2022/02/17 02:20:55;;;;;;;9.70;4.50;;;3.10;99.90;;;;;;5031041;28;20070;-65
2022/02/17 02:23:34;;;;;;;7.28;4.75;;;3.10;99.90;;;;;;4986407;28;20053;-67
2022/02/17 02:26:04;;;;;;;15.50;6.25;;;3.10;99.90;;;;;;5035738;28;20124;-66
2022/02/17 02:28:33;;;;;;;12.38;6.65;;;3.10;99.90;;;;;;5001208;28;20172;-68
2022/02/17 02:31:02;;;;;;;12.27;5.47;;;3.10;99.90;;;;;;5016386;28;20116;-66
2022/02/17 02:33:29;;;;;;;12.82;7.38;;;3.10;99.90;;;;;;5000532;28;20871;-66
2022/02/17 02:35:56;;;;;;;14.57;7.90;;;3.10;99.90;;;;;;4999924;28;20077;-65
2022/02/17 02:38:43;;;;;;;15.98;6.95;;;3.10;99.90;;;;;;4992478;28;20113;-66
2022/02/17 02:41:11;;;;;;;15.23;7.50;;;3.10;99.90;;;;;;4983781;28;20085;-71
2022/02/17 02:43:49;;;;;;;18.20;8.68;;;3.10;99.90;;;;;;5002336;28;20086;-68
2022/02/17 02:46:18;;;;;;;18.73;8.45;;;3.10;99.90;;;;;;5002949;28;20041;-66
2022/02/17 02:48:48;;;;;;;;;;;3.10;99.90;;;;;;5018523;28;20085;-66
2022/02/17 02:51:15;;;;;;;11.45;5.82;;;3.10;99.90;;;;;;5002745;28;19922;-65
2022/02/17 02:53:42;;;;;;;13.32;7.93;;;3.10;99.90;;;;;;5019260;28;20836;-67
2022/02/17 02:56:09;;;;;;;15.65;6.53;;;3.10;99.90;;;;;;5033984;28;20042;-65
2022/02/17 02:58:36;;;;;;;11.13;5.35;;;3.10;99.90;;;;;;5003824;28;20050;-69
2022/02/17 03:01:04;;;;;;;13.15;6.50;;;3.10;99.90;;;;;;5015055;28;20124;-66
2022/02/17 03:03:31;;;;;;;11.85;6.32;;;3.10;99.90;;;;;;5002428;28;20057;-66
2022/02/17 03:05:58;;;;;;;10.82;6.05;;;3.10;99.90;;;;;;5002911;28;20161;-65
2022/02/17 03:08:25;;;;;;;13.32;6.75;;;3.10;99.90;;;;;;5003011;28;20698;-66
2022/02/17 03:10:52;;;;;;;11.13;5.60;;;3.10;99.90;;;;;;5003427;28;20488;-67
2022/02/17 03:13:34;;;;;;;12.55;6.30;;;3.10;99.90;;;;;;5034304;28;20503;-67
2022/02/17 03:16:02;;;;;;;14.07;6.63;;;3.10;99.90;;;;;;5033608;28;20064;-67
2022/02/17 03:18:30;;;;;;;9.15;4.80;;;3.10;99.90;;;;;;5002889;28;20053;-67
2022/02/17 03:20:57;;;;;;;11.52;4.68;;;3.10;99.90;;;;;;5000720;28;20088;-67
2022/02/17 03:23:24;;;;;;;9.10;5.07;;;3.10;99.90;;;;;;5000325;28;20139;-68
2022/02/17 03:26:00;;;;;;;7.20;5.03;;;3.10;99.90;;;;;;5033372;28;20056;-66
2022/02/17 03:28:27;;;;;;;9.73;5.57;;;3.10;99.90;;;;;;4999637;28;20041;-65
2022/02/17 03:31:00;;;;;;;10.45;5.63;;;3.10;99.90;;;;;;5034156;28;20057;-67
2022/02/17 03:33:27;;;;;;;8.75;4.95;;;3.10;99.90;;;;;;5031663;28;20046;-66
2022/02/17 03:35:57;;;;;;;7.03;4.40;;;3.00;99.90;;;;;;5001199;28;20046;-67
2022/02/17 03:38:24;;;;;;;8.73;4.70;;;3.00;99.90;;;;;;5004195;28;20042;-67
2022/02/17 03:40:55;;;;;;;7.38;4.22;;;3.00;99.90;;;;;;5002441;28;20081;-67
2022/02/17 03:43:29;;;;;;;6.22;3.35;;;3.00;99.90;;;;;;4908746;28;21061;-66
2022/02/17 03:45:57;;;;;;;5.65;4.43;;;3.00;99.90;;;;;;973322;28;10002057;-66
2022/02/17 03:48:26;;;;;;;3.88;2.80;;;3.00;99.90;;;;;;4981261;28;20046;-65
2022/02/17 03:50:59;;;;;;;5.45;3.05;;;3.00;99.90;;;;;;4986404;28;20850;-66
2022/02/17 03:53:26;;;;;;;5.78;3.20;;;3.00;99.90;;;;;;4978951;28;20054;-67
2022/02/17 03:55:54;;;;;;;6.18;3.85;;;3.00;99.90;;;;;;5022257;28;20555;-67
2022/02/17 04:01:12;;;;;;;7.40;3.97;;;3.00;99.90;;;;;;5020973;28;20137;-68
2022/02/17 04:03:44;;;;;;;6.05;3.65;;;3.00;99.90;;;;;;5034557;28;20365;-65
2022/02/17 04:06:11;;;;;;;5.97;3.50;;;3.00;99.90;;;;;;5007531;28;20054;-66
2022/02/17 04:08:38;;;;;;;5.95;3.83;;;3.00;99.90;;;;;;5003076;28;20053;-66
2022/02/17 04:11:05;;;;;;;6.20;2.72;;;3.00;99.90;;;;;;5000472;28;20045;-65
2022/02/17 04:13:37;;;;;;;5.25;3.55;;;3.00;99.90;;;;;;5001596;28;20118;-66
2022/02/17 04:16:05;;;;;;;6.78;3.30;;;3.00;99.90;;;;;;5001526;28;20054;-67
2022/02/17 04:18:34;;;;;;;6.03;3.95;;;3.00;99.90;;;;;;5005350;28;20108;-67
2022/02/17 04:21:13;;;;;;;5.32;3.75;;;3.00;99.90;;;;;;4981484;28;20070;-70
2022/02/17 04:23:55;;;;;;;4.15;2.70;;;3.00;99.90;;;;;;5003449;28;20121;-64
2022/02/17 04:26:28;;;;;;;3.40;2.50;;;3.00;99.90;;;;;;4987099;28;20130;-68
2022/02/17 04:29:08;;;;;;;3.30;1.95;;;3.00;99.90;;;;;;4980343;28;20054;-71
2022/02/17 04:31:44;;;;;;;3.67;2.17;;;2.90;99.90;;;;;;4982766;28;20050;-67
2022/02/17 04:34:11;;;;;;;2.47;1.77;;;3.00;99.90;;;;;;4980631;28;20050;-65
2022/02/17 04:36:38;;;;;;;1.15;0.95;;;2.90;99.90;;;;;;4993386;28;20118;-65
2022/02/17 04:39:07;;;;;;;2.33;1.40;;;2.90;99.90;;;;;;4976925;28;20133;-68
2022/02/17 04:44:26;;;;;;;5.45;2.60;;;2.90;99.90;;;;;;4989893;28;20053;-66
2022/02/17 04:46:58;;;;;;;3.65;2.72;;;2.90;99.90;;;;;;5038373;28;20058;-66
2022/02/17 04:49:26;;;;;;;5.60;2.88;;;2.90;99.90;;;;;;4996266;28;20127;-65
2022/02/17 04:51:53;;;;;;;5.32;3.85;;;2.90;99.90;;;;;;4999348;28;20450;-68
2022/02/17 04:54:25;;;;;;;3.10;2.53;;;2.90;99.90;;;;;;5015011;28;20428;-65
2022/02/17 04:56:53;;;;;;;3.20;2.50;;;2.90;99.90;;;;;;4997213;28;20053;-67
2022/02/17 04:59:26;;;;;;;4.85;2.97;;;2.90;99.90;;;;;;5000071;28;20047;-66
2022/02/17 05:01:53;;;;;;;5.70;3.47;;;2.90;99.90;;;;;;4986642;28;20518;-66
2022/02/17 05:04:39;;;;;;;3.92;2.75;;;2.80;99.90;;;;;;5003125;28;20488;-66
2022/02/17 05:07:15;;;;;;;3.33;2.97;;;2.90;99.90;;;;;;4998844;28;20388;-66
2022/02/17 05:09:42;;;;;;;3.88;2.70;;;2.80;99.90;;;;;;5016158;28;20123;-66
2022/02/17 05:12:09;;;;;;;3.50;3.20;;;2.80;99.90;;;;;;5005441;28;20679;-67
2022/02/17 05:14:37;;;;;;;5.18;3.78;;;2.80;99.90;;;;;;5000049;28;20050;-66
2022/02/17 05:17:06;;;;;;;4.57;3.45;;;2.80;99.90;;;;;;4997553;28;20093;-66
2022/02/17 05:19:34;;;;;;;3.08;2.38;;;2.80;99.90;;;;;;5038164;28;20053;-65
2022/02/17 05:22:40;;;;;;;2.58;1.98;;;2.70;99.90;;;;;;4995437;28;20054;-66
2022/02/17 05:25:29;;;;;;;3.70;1.92;;;2.70;99.90;;;;;;4974674;28;20054;-65
2022/02/17 05:28:03;;;;;;;3.83;2.50;;;2.60;99.90;;;;;;5013636;28;20054;-67
2022/02/17 05:30:40;;;;;;;2.63;2.35;;;2.60;99.90;;;;;;4982788;28;20133;-66
2022/02/17 05:33:26;;;;;;;3.05;1.95;;;2.60;99.90;;;;;;4974520;28;20615;-67
2022/02/17 05:36:16;;;;;;;2.00;1.67;;;2.60;99.90;;;;;;4988364;28;20048;-65
2022/02/17 05:39:01;;;;;;;2.30;1.95;;;2.60;99.90;;;;;;4984362;28;20096;-68
2022/02/17 05:41:50;;;;;;;1.92;1.50;;;2.50;99.90;;;;;;4985963;28;20065;-66
2022/02/17 05:44:17;;;;;;;3.75;1.75;;;2.50;99.90;;;;;;4994936;28;20118;-65
2022/02/17 05:46:44;;;;;;;2.40;1.98;;;2.40;99.90;;;;;;4997812;28;20185;-67
2022/02/17 05:49:11;;;;;;;2.40;1.73;;;2.30;99.90;;;;;;4984858;28;20050;-67
2022/02/17 05:51:38;;;;;;;1.58;1.48;;;2.30;99.90;;;;;;4987008;28;20065;-68
2022/02/17 05:54:06;;;;;;;3.08;1.60;;;2.20;99.90;;;;;;5000031;28;20053;-66
2022/02/17 05:56:33;;;;;;;2.10;1.90;;;2.10;99.90;;;;;;4984903;28;20144;-68
2022/02/17 05:59:00;;;;;;;1.95;1.27;;;2.10;99.90;;;;;;4988341;28;20089;-68
2022/02/17 06:01:27;;;;;;;2.22;1.73;;;2.00;99.90;;;;;;4986546;28;20560;-69
2022/02/17 06:03:54;;;;;;;0.75;0.75;;;1.90;99.90;;;;;;4986311;28;20385;-67
2022/02/17 06:06:21;;;;;;;1.45;0.90;;;1.80;99.90;;;;;;4986284;28;20547;-65
2022/02/17 06:08:48;;;;;;;1.23;1.00;;;1.80;99.90;;;;;;4988112;28;20478;-66
2022/02/17 06:11:14;;;;;;;1.40;0.65;;;1.70;99.90;;;;;;4981795;28;20108;-67
2022/02/17 06:13:41;;;;;;;0.88;0.60;;;1.70;99.90;;;;;;4976834;28;20146;-66
2022/02/17 06:16:09;;;;;;;2.08;0.68;;;1.60;99.90;;;;;;4983007;28;20465;-64
2022/02/17 06:18:35;;;;;;;0.77;0.68;;;1.40;99.90;;;;;;4980982;28;20054;-64
2022/02/17 06:21:02;;;;;;;1.23;0.80;;;1.40;99.90;;;;;;4917329;28;20742;-67
2022/02/17 06:23:32;;;;;;;2.85;2.60;;;1.40;99.90;;;;;;1403901;28;10024540;-66
2022/02/17 06:25:59;;;;;;;2.35;1.17;;;1.40;99.90;;;;;;4643945;28;10001445;-69
2022/02/17 06:28:27;;;;;;;2.50;1.25;;;1.40;99.90;;;;;;5005779;28;20572;-65
2022/02/17 06:30:56;;;;;;;0.70;0.52;;;1.30;99.90;;;;;;5002642;28;20050;-65
2022/02/17 06:33:23;;;;;;;1.75;1.23;;;1.30;99.90;;;;;;5006626;28;20049;-66
2022/02/17 06:35:50;;;;;;;1.85;0.63;;;1.30;99.90;;;;;;5002516;28;20046;-64
2022/02/17 06:38:17;;;;;;;3.22;1.08;;;1.30;99.90;;;;;;5002411;28;20042;-66
2022/02/17 06:40:44;;;;;;;2.25;0.85;;;1.30;99.90;;;;;;5002384;28;20160;-65
2022/02/17 06:43:13;;;;;;;4.00;1.38;;;1.30;99.90;;;;;;5004992;28;20046;-65
2022/02/17 06:45:42;;;;;;;2.58;1.48;;;1.30;99.90;;;;;;5001114;28;20137;-65
2022/02/17 06:48:09;;;;;;;2.63;1.90;;;1.30;99.90;;;;;;5005496;28;20090;-66
2022/02/17 06:50:36;;;;;;;4.78;1.80;;;1.30;99.90;;;;;;5001448;28;20068;-65
2022/02/17 06:53:06;;;;;;;5.95;2.70;;;1.40;99.90;;;;;;5008611;28;20633;-66
2022/02/17 06:55:34;;;;;;;3.28;1.90;;;1.40;99.90;;;;;;4996466;28;20054;-65
2022/02/17 06:58:03;;;;;;;3.35;1.80;;;1.40;99.90;;;;;;4989158;28;20076;-67
2022/02/17 07:00:30;;;;;;;3.58;2.40;;;1.40;99.90;;;;;;5002164;28;20137;-65
2022/02/17 07:02:57;;;;;;;3.65;2.28;;;1.40;99.90;;;;;;5004864;28;20117;-67
2022/02/17 07:05:26;;;;;;;7.45;3.28;;;1.40;99.90;;;;;;4998203;28;20119;-67
2022/02/17 07:07:53;;;;;;;3.80;1.80;;;1.30;99.90;;;;;;5007088;28;20050;-66
2022/02/17 07:13:10;;;;;;;4.78;2.35;;;1.30;99.90;;;;;;4984392;28;20412;-65
2022/02/17 07:15:37;;;;;;;8.93;2.10;;;1.30;99.90;;;;;;5000069;28;20065;-66
2022/02/17 07:18:05;;;;;;;4.70;2.35;;;1.30;99.90;;;;;;4981634;28;20172;-71
2022/02/17 07:20:34;;;;;;;10.85;3.15;;;1.30;99.90;;;;;;4998395;28;20058;-69
2022/02/17 07:23:02;;;;;;;2.33;0.98;;;1.30;99.90;;;;;;5002533;28;20389;-69
2022/02/17 07:25:30;;;;;;;6.18;1.52;;;1.30;99.90;;;;;;4978478;28;20069;-68
2022/02/17 07:27:57;;;;;;;2.88;1.40;;;1.30;99.90;;;;;;4982311;28;20054;-67
2022/02/17 07:30:24;;;;;;;10.40;2.70;;;1.30;99.90;;;;;;4979624;28;20105;-69
2022/02/17 07:32:52;;;;;;;6.25;2.13;;;1.30;99.90;;;;;;4978332;28;20199;-72
2022/02/17 07:35:19;;;;;;;3.80;2.10;;;1.40;99.90;;;;;;4974954;28;20136;-70
2022/02/17 07:37:47;;;;;;;3.08;2.25;;;1.30;99.90;;;;;;5013763;28;20045;-68
2022/02/17 07:40:17;;;;;;;3.00;2.20;;;1.40;99.90;;;;;;4978471;28;20081;-65
2022/02/17 07:42:45;;;;;;;4.93;2.40;;;1.40;99.90;;;;;;4980783;28;20073;-65
2022/02/17 07:45:17;;;;;;;4.63;1.73;;;1.40;99.90;;;;;;4937044;28;20046;-65
2022/02/17 07:47:54;;;;;;;4.57;2.13;;;1.40;99.90;;;;;;3807817;28;10024249;-66
2022/02/17 07:50:27;;;;;;;5.63;2.45;;;1.40;99.90;;;;;;1714447;28;10002095;-70
2022/02/17 07:52:59;;;;;;;3.80;2.22;;;1.50;99.90;;;;;;4982409;28;20168;-66
2022/02/17 07:55:27;;;;;;;4.25;2.33;;;1.50;99.90;;;;;;4977764;28;20053;-68
2022/02/17 07:58:00;;;;;;;2.78;1.73;;;1.50;99.90;;;;;;4979228;28;20612;-67
2022/02/17 08:00:27;;;;;;;6.07;1.83;;;1.50;99.90;;;;;;4976718;28;20127;-70
2022/02/17 08:02:55;;;;;;;4.43;1.67;;;1.50;99.90;;;;;;4980428;28;20052;-66
2022/02/17 08:05:22;;;;;;;3.67;1.30;;;1.50;99.90;;;;;;4975787;28;20919;-67
2022/02/17 08:07:49;;;;;;;6.57;1.80;;;1.60;99.90;;;;;;4981748;28;20057;-67
2022/02/17 08:10:18;;;;;;;3.30;1.83;;;1.60;99.90;;;;;;4983171;28;20045;-67
2022/02/17 08:12:45;;;;;;;3.83;2.53;;;1.70;99.90;;;;;;4981241;28;20056;-65
2022/02/17 08:15:12;;;;;;;3.03;2.58;;;1.70;99.90;;;;;;4980089;28;20054;-66
2022/02/17 08:17:39;;;;;;;4.15;3.40;;;1.70;99.90;;;;;;4979733;28;20081;-70
2022/02/17 08:20:07;;;;;;;3.58;2.50;;;1.80;99.90;;;;;;4978868;28;20130;-70
2022/02/17 08:22:34;;;;;;;4.53;2.38;;;1.80;99.90;;;;;;4980164;28;20157;-67
2022/02/17 08:25:02;;;;;;;3.65;2.25;;;1.80;99.90;;;;;;4976915;28;20161;-69
2022/02/17 08:27:31;;;;;;;3.88;2.35;;;1.80;99.90;;;;;;4975051;28;20301;-70
2022/02/17 08:29:57;;;;;;;4.70;2.58;;;1.90;99.90;;;;;;4979466;28;20484;-66
2022/02/17 08:32:25;;;;;;;5.75;2.78;;;1.90;99.90;;;;;;4980499;28;20163;-68
2022/02/17 08:34:53;;;;;;;7.00;2.83;;;1.90;99.90;;;;;;4979651;28;20861;-67
2022/02/17 08:37:20;;;;;;;5.60;1.77;;;2.00;99.90;;;;;;4976355;28;20128;-68
2022/02/17 08:39:48;;;;;;;3.90;2.05;;;2.00;99.90;;;;;;4980781;28;20056;-68
2022/02/17 08:42:15;;;;;;;11.73;2.80;;;2.00;99.90;;;;;;4982453;28;20042;-67
2022/02/17 08:44:42;;;;;;;7.03;3.20;;;2.00;99.90;;;;;;4981133;28;20158;-67
2022/02/17 08:47:09;;;;;;;5.35;2.10;;;2.10;99.90;;;;;;4977146;28;20057;-67
2022/02/17 08:49:36;;;;;;;6.25;1.95;;;2.10;99.90;;;;;;4980152;28;20074;-66
2022/02/17 08:52:03;;;;;;;6.90;2.08;;;2.00;99.90;;;;;;4979021;28;20135;-66
2022/02/17 08:54:30;;;;;;;6.57;2.38;;;2.10;99.90;;;;;;4981923;28;20152;-73
2022/02/17 08:56:57;;;;;;;3.28;2.17;;;2.10;99.90;;;;;;4964888;28;20124;-67
2022/02/17 08:59:24;;;;;;;4.35;2.80;;;2.10;99.90;;;;;;4973738;28;20133;-69
2022/02/17 09:01:54;;;;;;;4.75;1.77;;;2.10;99.90;;;;;;4977561;28;20068;-67
2022/02/17 09:04:21;;;;;;;3.53;1.92;;;2.20;99.90;;;;;;4979270;28;20092;-70
2022/02/17 09:06:48;;;;;;;6.70;1.60;;;2.10;99.90;;;;;;4973569;28;20108;-68
2022/02/17 09:09:16;;;;;;;4.28;1.60;;;2.10;99.90;;;;;;4974965;28;20147;-69
2022/02/17 09:11:43;;;;;;;3.63;1.35;;;2.10;99.90;;;;;;4975463;28;20138;-65
2022/02/17 09:14:10;;;;;;;5.45;1.60;;;2.10;99.90;;;;;;4983036;28;20077;-65
2022/02/17 09:16:37;;;;;;;5.63;2.60;;;2.10;99.90;;;;;;4982707;28;20081;-71
2022/02/17 09:19:05;;;;;;;5.95;1.42;;;2.10;99.90;;;;;;4981263;28;20120;-72
2022/02/17 09:21:33;;;;;;;4.60;1.98;;;2.10;99.90;;;;;;4980967;28;20475;-67
2022/02/17 09:24:00;;;;;;;3.90;1.33;;;2.00;99.90;;;;;;4980219;28;20156;-69
2022/02/17 09:26:29;;;;;;;5.57;2.25;;;2.00;99.90;;;;;;4980780;28;20049;-69
2022/02/17 09:28:57;;;;;;;3.15;1.13;;;2.10;99.90;;;;;;4980906;28;20149;-65
2022/02/17 09:31:44;;;;;;;4.78;1.38;;;2.10;99.90;;;;;;4958975;28;20050;-66
2022/02/17 09:34:12;;;;;;;10.00;3.28;;;2.00;99.90;;;;;;4962851;28;20140;-68
2022/02/17 09:36:39;;;;;;;5.45;1.52;;;2.00;99.90;;;;;;4959489;28;20444;-67
2022/02/17 09:39:06;;;;;;;2.10;1.02;;;2.00;99.90;;;;;;4977125;28;20057;-65
2022/02/17 09:41:37;;;;;;;1.98;0.98;;;2.00;99.90;;;;;;4979999;28;20073;-67
2022/02/17 09:44:08;;;;;;;3.03;0.93;;;2.00;99.90;;;;;;4983142;28;20049;-67
2022/02/17 09:46:59;;;;;;;2.12;1.33;;;2.00;99.90;;;;;;4465900;28;10000973;-66
2022/02/17 09:49:30;;;;;;;2.63;1.13;;;2.00;99.90;;;;;;2053941;28;10002022;-67
2022/02/17 09:51:57;;;;;;;2.13;1.30;;;2.10;99.90;;;;;;4962329;28;20149;-65
2022/02/17 09:54:24;;;;;;;4.47;1.38;;;2.10;99.90;;;;;;4963135;28;20057;-68
2022/02/17 09:56:52;;;;;;;2.72;1.17;;;2.00;99.90;;;;;;4961326;28;20140;-65
2022/02/17 09:59:19;;;;;;;2.15;1.48;;;1.90;99.90;;;;;;4961437;28;20054;-72
2022/02/17 10:01:52;;;;;;;6.20;1.45;;;1.90;99.90;;;;;;4973692;28;20492;-71
2022/02/17 10:04:22;;;;;;;1.98;1.10;;;1.90;99.90;;;;;;4960963;28;20672;-66
2022/02/17 10:06:52;;;;;;;5.93;1.80;;;1.90;99.90;;;;;;4960720;28;20378;-68
2022/02/17 10:09:20;;;;;;;3.85;1.10;;;1.90;99.90;;;;;;4962510;28;20054;-69
2022/02/17 10:11:49;;;;;;;3.35;1.65;;;2.00;99.90;;;;;;4961415;28;20050;-67
2022/02/17 10:14:18;;;;;;;3.53;1.50;;;2.00;99.90;;;;;;4960889;28;20445;-72
2022/02/17 10:16:51;;;;;;;4.22;1.50;;;2.00;99.90;;;;;;4961782;28;20057;-68
2022/02/17 10:19:18;;;;;;;6.40;1.27;;;2.00;99.90;;;;;;4962534;28;20117;-72
2022/02/17 10:21:45;;;;;;;8.30;3.10;;;2.00;99.90;;;;;;4962819;28;20135;-71
2022/02/17 10:24:37;;;;;;;5.97;1.58;;;2.00;99.90;;;;;;4962117;28;20745;-67
2022/02/17 10:27:16;;;;;;;11.23;1.50;;;2.10;99.90;;;;;;4958567;28;20121;-66
2022/02/17 10:30:11;;;;;;;7.53;1.10;;;2.00;99.90;;;;;;4961915;28;20069;-68
2022/02/17 10:32:54;;;;;;;1.88;0.75;;;2.10;99.90;;;;;;4961986;28;21414;-68
2022/02/17 10:35:23;;;;;;;2.35;1.33;;;2.10;99.90;;;;;;4961018;28;20074;-68
2022/02/17 10:37:55;;;;;;;5.43;1.10;;;2.10;99.90;;;;;;4961190;28;20138;-67
2022/02/17 10:40:25;;;;;;;2.20;0.77;;;2.10;99.90;;;;;;4961976;28;20054;-67
2022/02/17 10:43:08;;;;;;;4.28;1.63;;;2.10;99.90;;;;;;4961040;28;20403;-73
2022/02/17 10:45:40;;;;;;;4.93;1.30;;;2.10;99.90;;;;;;4977734;28;20164;-65
2022/02/17 10:48:20;;;;;;;4.77;1.03;;;2.10;99.90;;;;;;4979158;28;20161;-70
2022/02/17 10:51:12;;;;;;;4.57;0.88;;;2.20;99.90;;;;;;4981536;28;20069;-69
2022/02/17 10:53:43;;;;;;;4.20;1.88;;;2.10;99.90;;;;;;4979831;28;20062;-65
2022/02/17 10:56:22;;;;;;;5.15;0.90;;;2.20;99.90;;;;;;4981953;28;20514;-68
2022/02/17 10:58:50;;;;;;;2.03;0.60;;;2.20;99.90;;;;;;5003495;28;20053;-66
2022/02/17 11:01:20;;;;;;;5.93;0.65;;;2.20;99.90;;;;;;5002030;28;20081;-69
2022/02/17 11:03:48;;;;;;;4.88;2.25;;;2.20;99.90;;;;;;5033040;28;20438;-67
2022/02/17 11:06:16;;;;;;;6.63;1.05;;;2.20;99.90;;;;;;5002304;28;20044;-65
2022/02/17 11:08:45;;;;;;;3.03;0.70;;;2.30;99.90;;;;;;5003751;28;20061;-64
2022/02/17 11:11:18;;;;;;;3.70;0.65;;;2.30;99.90;;;;;;4971242;28;20073;-65
2022/02/17 11:13:50;;;;;;;4.03;0.77;;;2.30;99.90;;;;;;4990684;28;20049;-69
2022/02/17 11:16:22;;;;;;;5.25;0.95;;;2.30;99.90;;;;;;5000445;28;20058;-65
2022/02/17 11:18:52;;;;;;;2.15;0.85;;;2.40;99.90;;;;;;4999589;28;20050;-67
2022/02/17 11:21:19;;;;;;;1.40;0.60;;;2.40;99.90;;;;;;5005074;28;20056;-64
2022/02/17 11:23:46;;;;;;;3.55;1.02;;;2.40;99.90;;;;;;5000235;28;20517;-71
2022/02/17 11:26:32;;;;;;;2.03;0.60;;;2.40;99.90;;;;;;5000731;28;20050;-66
2022/02/17 11:29:24;;;;;;;4.50;2.15;;;2.40;99.90;;;;;;4998911;28;20061;-68
2022/02/17 11:32:00;;;;;;;8.32;2.08;;;2.30;99.90;;;;;;4981166;28;20066;-66
2022/02/17 11:34:36;;;;;;;1.38;0.68;;;2.30;99.90;;;;;;4980098;28;20149;-68
2022/02/17 11:37:41;;;;;;;2.30;1.02;;;2.30;99.90;;;;;;4982590;28;20133;-68
2022/02/17 11:40:16;;;;;;;1.55;0.75;;;2.30;99.90;;;;;;4975591;28;20484;-68
2022/02/17 11:42:47;;;;;;;3.80;0.70;;;2.30;99.90;;;;;;4930370;28;20328;-68
2022/02/17 11:45:25;;;;;;;0.85;0.63;;;2.30;99.90;;;;;;3166590;28;10002406;-65
2022/02/17 11:48:09;;;;;;;4.20;0.75;;;2.40;99.90;;;;;;3261957;28;10001924;-65
2022/02/17 11:50:45;;;;;;;2.08;0.95;;;2.40;99.90;;;;;;4981778;28;20085;-67
2022/02/17 11:53:34;;;;;;;1.33;0.60;;;2.40;99.90;;;;;;4981082;28;20105;-69
2022/02/17 11:56:20;;;;;;;3.38;1.17;;;2.50;99.90;;;;;;4982108;28;20050;-67
2022/02/17 11:58:52;;;;;;;2.15;0.90;;;2.50;99.90;;;;;;5001375;28;20048;-65
2022/02/17 12:01:22;;;;;;;4.15;1.15;;;2.60;99.90;;;;;;4997990;28;20137;-66
2022/02/17 12:03:56;;;;;;;4.60;1.33;;;2.50;99.90;;;;;;5003325;28;20080;-67
2022/02/17 12:06:53;;;;;;;4.70;3.05;;;2.50;99.90;;;;;;5001982;28;20499;-67
2022/02/17 12:09:40;;;;;;;3.78;1.33;;;2.50;99.90;;;;;;4999503;28;20243;-69
2022/02/17 12:12:27;;;;;;;3.30;1.60;;;2.40;99.90;;;;;;5001804;28;20137;-65
2022/02/17 12:14:59;;;;;;;5.97;1.10;;;2.40;99.90;;;;;;5000241;28;20070;-65
2022/02/17 12:17:40;;;;;;;1.73;0.82;;;2.30;99.90;;;;;;5000325;28;20050;-69
2022/02/17 12:20:13;;;;;;;3.78;1.20;;;2.40;99.90;;;;;;5000369;28;20140;-64
2022/02/17 12:22:53;;;;;;;10.80;1.77;;;2.40;99.90;;;;;;5002762;28;20141;-68
2022/02/17 12:25:27;;;;;;;3.42;1.10;;;2.40;99.90;;;;;;5004960;28;20080;-65
2022/02/17 12:27:57;;;;;;;1.75;0.82;;;2.30;99.90;;;;;;4999235;28;20108;-68
2022/02/17 12:30:38;;;;;;;7.30;2.65;;;2.40;99.90;;;;;;5005279;28;20049;-66
2022/02/17 12:33:07;;;;;;;6.28;2.28;;;2.40;99.90;;;;;;5003026;28;20045;-67
2022/02/17 12:35:36;;;;;;;13.00;1.80;;;2.40;99.90;;;;;;5003108;28;20050;-66
2022/02/17 12:38:15;;;;;;;4.75;2.00;;;2.40;99.90;;;;;;5001840;28;20128;-66
2022/02/17 12:40:43;;;;;;;12.45;3.60;;;2.50;99.90;;;;;;4987939;28;20054;-64
2022/02/17 12:43:11;;;;;;;4.07;1.80;;;2.50;99.90;;;;;;4980451;28;20070;-65
2022/02/17 12:45:47;;;;;;;3.10;1.23;;;2.50;99.90;;;;;;4980182;28;20045;-68
2022/02/17 12:48:16;;;;;;;4.47;1.15;;;2.50;99.90;;;;;;4987913;28;20074;-65
2022/02/17 12:51:03;;;;;;;5.13;2.20;;;2.40;99.90;;;;;;5001319;28;20038;-67
2022/02/17 12:53:52;;;;;;;13.27;1.88;;;2.40;99.90;;;;;;5004432;28;20073;-64
2022/02/17 12:56:23;;;;;;;7.75;1.60;;;2.50;99.90;;;;;;5004512;28;20667;-67
2022/02/17 12:58:51;;;;;;;4.75;2.53;;;2.50;99.90;;;;;;4993185;28;20145;-64
2022/02/17 13:01:26;;;;;;;6.80;1.33;;;2.50;99.90;;;;;;5002375;28;20049;-70
2022/02/17 13:03:54;;;;;;;10.02;2.10;;;2.50;99.90;;;;;;5005755;28;20401;-65
2022/02/17 13:06:26;;;;;;;9.18;3.05;;;2.40;99.90;;;;;;5005924;28;20092;-65
2022/02/17 13:08:58;;;;;;;5.90;1.95;;;2.40;99.90;;;;;;5005403;28;20412;-69
2022/02/17 13:11:30;;;;;;;5.10;2.33;;;2.40;99.90;;;;;;5003501;28;20081;-66
2022/02/17 13:14:03;;;;;;;5.18;2.10;;;2.40;99.90;;;;;;5004516;28;20061;-66
2022/02/17 13:16:30;;;;;;;8.93;2.05;;;2.40;99.90;;;;;;5005177;28;20096;-65
2022/02/17 13:19:00;;;;;;;5.63;2.33;;;2.40;99.90;;;;;;5008915;28;20804;-64
2022/02/17 13:21:28;;;;;;;13.80;2.90;;;2.40;99.90;;;;;;5003027;28;20042;-66